Terminal Aerodrome Forecast
Issued by NWS

Home | Current Version | Previous Version | Text Only | Print | Product List | Glossary On
Versions: 1 2 3 4 5 6 7 8 9 10 11 12 13 14
024
FTUS43 KOAX 101720
TAFSNY
TAF
KSNY 101720Z 1018/1118 31020G31KT P6SM SKC
     FM110000 31013KT P6SM SKC
     FM110600 28010KT P6SM SKC
     FM111500 28013G20KT P6SM BKN150=

USA.gov is the U.S. government's official web portal to all federal, state and local government web resources and services.